Terminal Aerodrome Forecast
Issued by NWS

Home | Current Version | Previous Version | Text Only | Print | Product List | Glossary Off
Versions: 1 2 3 4 5 6 7 8 9 10 11 12 13 14 15 16 17 18 19 20 21 22 23 24 25 26 27 28 29 30 31 32 33 34 35 36 37 38

000
FTUS43 KGRB 292300
TAFRHI
TAF
KRHI 292320Z 3000/3024 17005KT P6SM VCTS SCT012CB BKN040
      TEMPO 3001/3005 1SM +TSRA BR BKN012CB
     FM300700 21003KT 1SM BR VCSH OVC004
      TEMPO 3007/3011 1/4SM -SHRA FG VV001
     FM301300 30005KT 2SM -SHRA BR OVC004=

USA.gov is the U.S. government's official web portal to all federal, state and local government web resources and services.